< < Back
Terminal Aerodrome Forecast


Current Version              Previous Versions:   1  2  3  4  5  6  7  8  9  

Terminal Aerodrome Forecast

385
FTUS44 KMRX 230520
TAFTYS
TAF
KTYS 230520Z 2306/2406 24003KT P6SM SCT150 BKN250
     FM231100 VRB03KT 6SM BR SCT025 BKN250
     FM231300 28006KT P6SM SCT040 BKN250
     FM231900 27007KT P6SM VCTS SCT050CB BKN250
     FM240100 VRB03KT P6SM FEW060 SCT150=



Latest METAR

734
SAUS80 KWBC 231900 RRB
MTRTYS
METAR KTYS 231853Z 33007KT 10SM FEW040 SCT075 BKN090 32/22 A2999 RMK AO2
SLP140 T03220217


USA.gov is the U.S. government's official web portal to all federal, state and local government web resources and services.